createdAt,value
2022-12-24T00:01:06.700Z,-4.66
2022-12-24T00:03:34.545Z,-4.68
2022-12-24T00:06:05.853Z,-4.68
2022-12-24T00:08:32.938Z,-4.69
2022-12-24T00:10:59.853Z,-4.70
2022-12-24T00:13:26.561Z,-4.70
2022-12-24T00:15:53.223Z,-4.73
2022-12-24T00:18:19.908Z,-4.74
2022-12-24T00:20:49.822Z,-4.80
2022-12-24T00:23:17.436Z,-4.83
2022-12-24T00:25:44.759Z,-4.88
2022-12-24T00:28:12.762Z,-4.90
2022-12-24T00:30:40.367Z,-4.91
2022-12-24T00:33:07.166Z,-4.91
2022-12-24T00:35:34.950Z,-4.89
2022-12-24T00:38:01.725Z,-4.91
2022-12-24T00:40:28.358Z,-4.90
2022-12-24T00:42:55.019Z,-4.91
2022-12-24T00:45:22.083Z,-4.93
2022-12-24T00:47:49.158Z,-4.97
2022-12-24T00:50:15.951Z,-5.01
2022-12-24T00:52:42.597Z,-5.00
2022-12-24T00:55:09.777Z,-5.07
2022-12-24T00:57:36.515Z,-5.15
2022-12-24T01:00:04.957Z,-5.17
2022-12-24T01:02:31.779Z,-5.19
2022-12-24T01:05:10.814Z,-5.17
2022-12-24T01:07:39.255Z,-5.15
2022-12-24T01:10:06.662Z,-5.13
2022-12-24T01:12:33.559Z,-5.09
2022-12-24T01:15:00.289Z,-5.08
2022-12-24T01:17:28.907Z,-5.10
2022-12-24T01:19:55.641Z,-5.16
2022-12-24T01:22:22.355Z,-5.25
2022-12-24T01:24:49.119Z,-5.26
2022-12-24T01:27:15.828Z,-5.30
2022-12-24T01:29:42.480Z,-5.30
2022-12-24T01:32:09.308Z,-5.29
2022-12-24T01:34:36.451Z,-5.28
2022-12-24T01:37:03.343Z,-5.27
2022-12-24T01:39:30.094Z,-5.26
2022-12-24T01:42:15.795Z,-5.23
2022-12-24T01:44:44.163Z,-5.23
2022-12-24T01:47:15.943Z,-5.22
2022-12-24T01:49:47.347Z,-5.19
2022-12-24T01:52:20.238Z,-5.19
2022-12-24T01:55:01.804Z,-5.16
2022-12-24T01:57:34.685Z,-5.15
2022-12-24T02:00:07.681Z,-5.11
2022-12-24T02:02:34.987Z,-5.09
2022-12-24T02:05:21.907Z,-5.11
2022-12-24T02:07:49.547Z,-5.10
2022-12-24T02:10:17.006Z,-5.06
2022-12-24T02:12:45.405Z,-5.09
2022-12-24T02:15:18.215Z,-5.14
2022-12-24T02:18:02.964Z,-5.14
2022-12-24T02:20:57.520Z,-5.15
2022-12-24T02:23:39.027Z,-5.23
2022-12-24T02:26:27.117Z,-5.32
2022-12-24T02:29:28.664Z,-5.37
2022-12-24T02:32:03.737Z,-5.42
2022-12-24T02:34:33.156Z,-5.43
2022-12-24T02:37:12.378Z,-5.48
2022-12-24T02:39:52.676Z,-5.53
2022-12-24T02:42:26.296Z,-5.59
2022-12-24T02:45:07.103Z,-5.67
2022-12-24T02:47:35.387Z,-5.72
2022-12-24T02:50:04.435Z,-5.77
2022-12-24T02:52:36.814Z,-5.79
2022-12-24T02:55:07.659Z,-5.79
2022-12-24T02:57:37.117Z,-5.76
2022-12-24T03:00:18.309Z,-5.76
2022-12-24T03:03:08.039Z,-5.76
2022-12-24T03:06:02.100Z,-5.82
2022-12-24T03:08:33.827Z,-5.82
2022-12-24T03:11:10.923Z,-5.82
2022-12-24T03:13:38.957Z,-5.83
2022-12-24T03:16:13.855Z,-5.83
2022-12-24T03:18:44.517Z,-5.85
2022-12-24T03:21:18.111Z,-5.90
2022-12-24T03:23:45.063Z,-5.91
2022-12-24T03:26:14.664Z,-5.92
2022-12-24T03:28:43.254Z,-5.92
2022-12-24T03:31:11.098Z,-5.91
2022-12-24T03:33:38.150Z,-5.85
2022-12-24T03:36:06.227Z,-5.77
2022-12-24T03:38:33.068Z,-5.72
2022-12-24T03:41:00.058Z,-5.67
2022-12-24T03:43:26.746Z,-5.64
2022-12-24T03:45:53.477Z,-5.62
2022-12-24T03:48:20.182Z,-5.64
2022-12-24T03:50:46.935Z,-5.63
2022-12-24T03:53:13.596Z,-5.68
2022-12-24T03:55:40.443Z,-5.72
2022-12-24T03:58:07.246Z,-5.69
2022-12-24T04:00:33.911Z,-5.68
2022-12-24T04:03:00.621Z,-5.68
2022-12-24T04:05:27.383Z,-5.66
2022-12-24T04:07:54.087Z,-5.66
2022-12-24T04:10:20.813Z,-5.68
2022-12-24T04:12:47.463Z,-5.73
2022-12-24T04:15:14.277Z,-5.72
2022-12-24T04:17:40.993Z,-5.69
2022-12-24T04:20:08.348Z,-5.69
2022-12-24T04:22:35.015Z,-5.68
2022-12-24T04:25:01.669Z,-5.69
2022-12-24T04:27:30.710Z,-5.70
2022-12-24T04:29:58.016Z,-5.70
2022-12-24T04:32:26.393Z,-5.72
2022-12-24T04:34:53.167Z,-5.71
2022-12-24T04:37:19.846Z,-5.71
2022-12-24T04:39:46.533Z,-5.70
2022-12-24T04:42:13.193Z,-5.69
2022-12-24T04:44:39.879Z,-5.67
2022-12-24T04:47:06.559Z,-5.66
2022-12-24T04:49:33.223Z,-5.66
2022-12-24T04:51:59.894Z,-5.69
2022-12-24T04:54:26.609Z,-5.76
2022-12-24T04:56:53.282Z,-5.85
2022-12-24T04:59:19.952Z,-5.92
2022-12-24T05:01:46.668Z,-5.94
2022-12-24T05:04:13.429Z,-5.96
2022-12-24T05:06:40.110Z,-5.99
2022-12-24T05:09:06.858Z,-6.00
2022-12-24T05:11:33.542Z,-5.98
2022-12-24T05:14:00.236Z,-5.97
2022-12-24T05:16:27.005Z,-6.00
2022-12-24T05:18:54.167Z,-5.99
2022-12-24T05:21:23.464Z,-5.98
2022-12-24T05:24:09.761Z,-5.95
2022-12-24T05:27:02.782Z,-5.92
2022-12-24T05:29:29.442Z,-5.89
2022-12-24T05:31:56.064Z,-5.86
2022-12-24T05:34:22.717Z,-5.84
2022-12-24T05:36:49.400Z,-5.79
2022-12-24T05:39:18.085Z,-5.77
2022-12-24T05:41:47.531Z,-5.79
2022-12-24T05:44:16.245Z,-5.84
2022-12-24T05:46:43.805Z,-5.86
2022-12-24T05:49:10.748Z,-5.88
2022-12-24T05:51:37.505Z,-5.91
2022-12-24T05:54:04.729Z,-5.92
2022-12-24T05:56:31.565Z,-5.89
2022-12-24T05:58:58.800Z,-5.85
2022-12-24T06:01:26.370Z,-5.84
2022-12-24T06:03:53.801Z,-5.84
2022-12-24T06:06:23.948Z,-5.87
2022-12-24T06:08:52.733Z,-5.87
2022-12-24T06:11:25.209Z,-5.84
2022-12-24T06:13:52.910Z,-5.83
2022-12-24T06:16:21.184Z,-5.80
2022-12-24T06:18:47.995Z,-5.77
2022-12-24T06:21:15.484Z,-5.74
2022-12-24T06:23:43.977Z,-5.73
2022-12-24T06:26:17.539Z,-5.70
2022-12-24T06:28:45.307Z,-5.70
2022-12-24T06:31:14.521Z,-5.69
2022-12-24T06:33:41.591Z,-5.69
2022-12-24T06:36:16.640Z,-5.68
2022-12-24T06:38:44.128Z,-5.67
2022-12-24T06:41:10.879Z,-5.66
2022-12-24T06:43:37.663Z,-5.65
2022-12-24T06:46:04.896Z,-5.64
2022-12-24T06:48:31.810Z,-5.64
2022-12-24T06:50:58.490Z,-5.64
2022-12-24T06:53:25.447Z,-5.64
2022-12-24T06:55:52.130Z,-5.67
2022-12-24T06:58:18.803Z,-5.69
2022-12-24T07:00:47.741Z,-5.70
2022-12-24T07:03:14.511Z,-5.69
2022-12-24T07:05:41.338Z,-5.68
2022-12-24T07:08:08.942Z,-5.67
2022-12-24T07:10:35.645Z,-5.67
2022-12-24T07:13:02.299Z,-5.70
2022-12-24T07:15:28.956Z,-5.78
2022-12-24T07:17:55.676Z,-5.86
2022-12-24T07:20:22.510Z,-5.90
2022-12-24T07:22:49.189Z,-5.94
2022-12-24T07:25:15.959Z,-5.95
2022-12-24T07:27:42.775Z,-6.00
2022-12-24T07:30:10.800Z,-6.06
2022-12-24T07:32:37.573Z,-6.06
2022-12-24T07:35:04.480Z,-6.08
2022-12-24T07:37:31.132Z,-6.11
2022-12-24T07:39:57.860Z,-6.13
2022-12-24T07:42:24.716Z,-6.14
2022-12-24T07:44:51.551Z,-6.16
2022-12-24T07:47:18.246Z,-6.17
2022-12-24T07:49:44.928Z,-6.18
2022-12-24T07:52:11.614Z,-6.23
2022-12-24T07:54:38.345Z,-6.24
2022-12-24T07:57:05.122Z,-6.22
2022-12-24T07:59:31.781Z,-6.20
2022-12-24T08:01:58.741Z,-6.18
2022-12-24T08:04:25.541Z,-6.13
2022-12-24T08:06:52.269Z,-6.07
2022-12-24T08:09:19.317Z,-5.99
2022-12-24T08:11:51.721Z,-5.94
2022-12-24T08:14:19.455Z,-5.89
2022-12-24T08:16:46.189Z,-5.87
2022-12-24T08:19:13.008Z,-5.85
2022-12-24T08:21:39.655Z,-5.82
2022-12-24T08:24:06.703Z,-5.81
2022-12-24T08:26:33.363Z,-5.81
2022-12-24T08:29:00.115Z,-5.82
2022-12-24T08:31:26.820Z,-5.80
2022-12-24T08:33:53.514Z,-5.80
2022-12-24T08:36:20.247Z,-5.78
2022-12-24T08:38:46.892Z,-5.76
2022-12-24T08:41:13.612Z,-5.76
2022-12-24T08:43:40.268Z,-5.74
2022-12-24T08:46:07.120Z,-5.75
2022-12-24T08:48:34.001Z,-5.77
2022-12-24T08:51:00.700Z,-5.80
2022-12-24T08:53:27.367Z,-5.80
2022-12-24T08:56:01.788Z,-5.81
2022-12-24T08:58:29.731Z,-5.78
2022-12-24T09:00:56.490Z,-5.70
2022-12-24T09:03:27.508Z,-5.65
2022-12-24T09:05:55.144Z,-5.60
2022-12-24T09:08:21.874Z,-5.56
2022-12-24T09:10:48.562Z,-5.51
2022-12-24T09:13:15.232Z,-5.49
2022-12-24T09:15:41.879Z,-5.48
2022-12-24T09:18:08.573Z,-5.42
2022-12-24T09:20:35.243Z,-5.37
2022-12-24T09:23:01.955Z,-5.33
2022-12-24T09:25:28.609Z,-5.29
2022-12-24T09:27:55.280Z,-5.26
2022-12-24T09:30:22.102Z,-5.18
2022-12-24T09:32:51.810Z,-5.11
2022-12-24T09:35:18.545Z,-5.03
2022-12-24T09:37:45.265Z,-4.95
2022-12-24T09:40:25.117Z,-4.89
2022-12-24T09:42:55.037Z,-4.84
2022-12-24T09:45:36.684Z,-4.84
2022-12-24T09:48:28.295Z,-4.85
2022-12-24T09:51:09.441Z,-4.85
2022-12-24T09:54:15.598Z,-4.85
2022-12-24T09:56:46.577Z,-4.87
2022-12-24T09:59:25.702Z,-4.87
2022-12-24T10:01:55.013Z,-4.88
2022-12-24T10:04:27.015Z,-4.86
2022-12-24T10:07:31.561Z,-4.83
2022-12-24T10:10:08.086Z,-4.76
2022-12-24T10:12:49.900Z,-4.72
2022-12-24T10:15:27.221Z,-4.68
2022-12-24T10:18:19.765Z,-4.67
2022-12-24T10:21:04.768Z,-4.67
2022-12-24T10:23:46.700Z,-4.66
2022-12-24T10:26:25.879Z,-4.66
2022-12-24T10:28:58.231Z,-4.62
2022-12-24T10:31:32.556Z,-4.56
2022-12-24T10:34:06.002Z,-4.53
2022-12-24T10:36:33.337Z,-4.51
2022-12-24T10:39:00.438Z,-4.45
2022-12-24T10:41:30.680Z,-4.46
2022-12-24T10:43:59.263Z,-4.44
2022-12-24T10:46:36.657Z,-4.43
2022-12-24T10:49:12.879Z,-4.40
2022-12-24T10:51:51.223Z,-4.37
2022-12-24T10:54:27.474Z,-4.37
2022-12-24T10:56:59.890Z,-4.36
2022-12-24T10:59:35.424Z,-4.30
2022-12-24T11:02:02.763Z,-4.24
2022-12-24T11:04:32.600Z,-4.21
2022-12-24T11:07:05.486Z,-4.12
2022-12-24T11:09:41.289Z,-3.99
2022-12-24T11:12:19.100Z,-3.93
2022-12-24T11:14:45.864Z,-3.93
2022-12-24T11:17:23.376Z,-3.91
2022-12-24T11:19:50.936Z,-3.91
2022-12-24T11:22:22.973Z,-3.90
2022-12-24T11:25:18.328Z,-3.79
2022-12-24T11:27:49.816Z,-3.66
2022-12-24T11:30:16.547Z,-3.62
2022-12-24T11:32:48.968Z,-3.62
2022-12-24T11:35:24.322Z,-3.63
2022-12-24T11:38:25.235Z,-3.65
2022-12-24T11:41:12.449Z,-3.68
2022-12-24T11:43:48.575Z,-3.71
2022-12-24T11:46:27.498Z,-3.74
2022-12-24T11:49:18.093Z,-3.76
2022-12-24T11:52:03.825Z,-3.77
2022-12-24T11:54:37.108Z,-3.78
2022-12-24T11:57:04.260Z,-3.81
2022-12-24T11:59:36.794Z,-3.78
2022-12-24T12:02:27.146Z,-3.77
2022-12-24T12:05:05.644Z,-3.72
2022-12-24T12:07:36.847Z,-3.71
2022-12-24T12:10:07.992Z,-3.71
2022-12-24T12:12:40.228Z,-3.71
2022-12-24T12:15:15.831Z,-3.73
2022-12-24T12:17:50.633Z,-3.71
2022-12-24T12:20:32.979Z,-3.71
2022-12-24T12:23:15.791Z,-3.71
2022-12-24T12:25:51.358Z,-3.72
2022-12-24T12:28:36.445Z,-3.70
2022-12-24T12:31:16.403Z,-3.62
2022-12-24T12:33:58.096Z,-3.59
2022-12-24T12:36:39.887Z,-3.57
2022-12-24T12:39:06.689Z,-3.59
2022-12-24T12:41:56.328Z,-3.62
2022-12-24T12:44:49.400Z,-3.65
2022-12-24T12:47:18.708Z,-3.67
2022-12-24T12:49:48.380Z,-3.71
2022-12-24T12:52:47.338Z,-3.74
2022-12-24T12:55:24.885Z,-3.76
2022-12-24T12:57:58.036Z,-3.81
2022-12-24T13:00:24.785Z,-3.82
2022-12-24T13:03:00.504Z,-3.83
2022-12-24T13:06:06.033Z,-3.86
2022-12-24T13:09:05.034Z,-3.88
2022-12-24T13:11:43.520Z,-3.90
2022-12-24T13:14:28.735Z,-3.90
2022-12-24T13:17:04.604Z,-3.91
2022-12-24T13:19:38.468Z,-3.92
2022-12-24T13:22:05.879Z,-3.92
2022-12-24T13:24:33.855Z,-3.92
2022-12-24T13:27:20.920Z,-3.93
2022-12-24T13:30:09.540Z,-3.95
2022-12-24T13:32:40.021Z,-3.96
2022-12-24T13:35:18.917Z,-3.97
2022-12-24T13:37:46.947Z,-3.98
2022-12-24T13:40:17.649Z,-3.98
2022-12-24T13:42:59.460Z,-4.00
2022-12-24T13:45:29.178Z,-4.02
2022-12-24T13:47:57.515Z,-4.06
2022-12-24T13:50:43.973Z,-4.05
2022-12-24T13:53:28.692Z,-4.07
2022-12-24T13:55:57.749Z,-4.08
2022-12-24T13:58:25.960Z,-4.14
2022-12-24T14:01:10.846Z,-4.16
2022-12-24T14:03:42.391Z,-4.21
2022-12-24T14:06:23.239Z,-4.23
2022-12-24T14:08:53.595Z,-4.24
2022-12-24T14:11:25.808Z,-4.27
2022-12-24T14:14:03.268Z,-4.27
2022-12-24T14:16:31.982Z,-4.29
2022-12-24T14:18:58.847Z,-4.30
2022-12-24T14:21:33.375Z,-4.32
2022-12-24T14:24:04.026Z,-4.32
2022-12-24T14:26:35.422Z,-4.33
2022-12-24T14:29:19.885Z,-4.36
2022-12-24T14:31:54.883Z,-4.38
2022-12-24T14:34:21.742Z,-4.41
2022-12-24T14:36:50.389Z,-4.42
2022-12-24T14:39:29.759Z,-4.43
2022-12-24T14:42:22.854Z,-4.44
2022-12-24T14:45:31.130Z,-4.47
2022-12-24T14:48:25.817Z,-4.48
2022-12-24T14:51:01.283Z,-4.49
2022-12-24T14:53:43.053Z,-4.52
2022-12-24T14:56:18.116Z,-4.53
2022-12-24T14:58:46.894Z,-4.55
2022-12-24T15:01:28.788Z,-4.55
2022-12-24T15:04:10.892Z,-4.62
2022-12-24T15:06:41.716Z,-4.71
2022-12-24T15:09:20.575Z,-4.80
2022-12-24T15:11:50.613Z,-4.84
2022-12-24T15:14:18.837Z,-4.87
2022-12-24T15:16:54.603Z,-4.85
2022-12-24T15:19:26.984Z,-4.85
2022-12-24T15:21:55.048Z,-4.87
2022-12-24T15:24:32.929Z,-4.90
2022-12-24T15:27:03.084Z,-4.92
2022-12-24T15:29:32.546Z,-4.95
2022-12-24T15:32:01.414Z,-4.98
2022-12-24T15:34:40.314Z,-4.99
2022-12-24T15:37:25.400Z,-4.98
2022-12-24T15:39:57.144Z,-5.01
2022-12-24T15:42:25.111Z,-5.04
2022-12-24T15:45:05.992Z,-5.08
2022-12-24T15:47:38.660Z,-5.09
2022-12-24T15:50:26.819Z,-5.08
2022-12-24T15:53:20.482Z,-5.12
2022-12-24T15:55:42.446Z,-5.15
2022-12-24T15:58:27.955Z,-5.17
2022-12-24T16:01:10.082Z,-5.20
2022-12-24T16:03:39.213Z,-5.24
2022-12-24T16:06:11.924Z,-5.24
2022-12-24T16:08:40.813Z,-5.22
2022-12-24T16:11:28.535Z,-5.24
2022-12-24T16:13:57.881Z,-5.24
2022-12-24T16:16:42.792Z,-5.28
2022-12-24T16:19:37.628Z,-5.31
2022-12-24T16:22:38.876Z,-5.30
2022-12-24T16:25:25.622Z,-5.31
2022-12-24T16:27:53.075Z,-5.31
2022-12-24T16:30:20.771Z,-5.33
2022-12-24T16:32:48.704Z,-5.32
2022-12-24T16:35:26.518Z,-5.29
2022-12-24T16:37:54.165Z,-5.24
2022-12-24T16:40:26.871Z,-5.21
2022-12-24T16:43:12.984Z,-5.20
2022-12-24T16:45:39.804Z,-5.20
2022-12-24T16:48:07.408Z,-5.16
2022-12-24T16:50:34.665Z,-5.14
2022-12-24T16:53:01.330Z,-5.14
2022-12-24T16:55:27.989Z,-5.15
2022-12-24T16:57:54.702Z,-5.17
2022-12-24T17:00:22.927Z,-5.18
2022-12-24T17:02:50.778Z,-5.19
2022-12-24T17:05:17.994Z,-5.17
2022-12-24T17:07:44.844Z,-5.17
2022-12-24T17:10:14.269Z,-5.18
2022-12-24T17:12:41.377Z,-5.18
2022-12-24T17:15:08.627Z,-5.20
2022-12-24T17:17:35.386Z,-5.20
2022-12-24T17:20:03.329Z,-5.22
2022-12-24T17:22:30.636Z,-5.24
2022-12-24T17:24:58.252Z,-5.28
2022-12-24T17:27:25.036Z,-5.30
2022-12-24T17:29:51.814Z,-5.32
2022-12-24T17:32:18.789Z,-5.34
2022-12-24T17:34:45.673Z,-5.37
2022-12-24T17:37:12.500Z,-5.43
2022-12-24T17:39:39.178Z,-5.46
2022-12-24T17:42:05.927Z,-5.55
2022-12-24T17:44:32.702Z,-5.65
2022-12-24T17:46:59.819Z,-5.72
2022-12-24T17:49:26.613Z,-5.78
2022-12-24T17:51:53.348Z,-5.85
2022-12-24T17:54:20.001Z,-5.91
2022-12-24T17:56:46.685Z,-5.95
2022-12-24T17:59:14.111Z,-5.94
2022-12-24T18:01:41.062Z,-5.93
2022-12-24T18:04:07.853Z,-5.91
2022-12-24T18:06:34.627Z,-5.89
2022-12-24T18:09:01.388Z,-5.85
2022-12-24T18:11:32.791Z,-5.84
2022-12-24T18:14:01.337Z,-5.79
2022-12-24T18:16:35.855Z,-5.78
2022-12-24T18:19:04.416Z,-5.75
2022-12-24T18:21:33.173Z,-5.75
2022-12-24T18:24:00.416Z,-5.73
2022-12-24T18:26:29.194Z,-5.72
2022-12-24T18:28:57.904Z,-5.68
2022-12-24T18:31:26.843Z,-5.65
2022-12-24T18:33:55.900Z,-5.61
2022-12-24T18:36:23.288Z,-5.59
2022-12-24T18:38:50.351Z,-5.57
2022-12-24T18:41:20.292Z,-5.55
2022-12-24T18:43:48.231Z,-5.54
2022-12-24T18:46:17.422Z,-5.52
2022-12-24T18:48:44.307Z,-5.54
2022-12-24T18:51:11.259Z,-5.53
2022-12-24T18:53:38.742Z,-5.56
2022-12-24T18:56:07.746Z,-5.61
2022-12-24T18:58:34.433Z,-5.64
2022-12-24T19:01:01.199Z,-5.66
2022-12-24T19:03:27.984Z,-5.67
2022-12-24T19:06:00.352Z,-5.73
2022-12-24T19:08:56.492Z,-5.78
2022-12-24T19:11:13.961Z,-5.79
2022-12-24T19:13:40.692Z,-5.80
2022-12-24T19:16:08.302Z,-5.81
2022-12-24T19:18:35.548Z,-5.78
2022-12-24T19:21:07.144Z,-5.78
2022-12-24T19:23:34.459Z,-5.79
2022-12-24T19:26:01.237Z,-5.83
2022-12-24T19:28:29.488Z,-5.86
2022-12-24T19:30:56.270Z,-5.89
2022-12-24T19:33:22.909Z,-5.94
2022-12-24T19:35:49.638Z,-5.98
2022-12-24T19:38:16.312Z,-6.00
2022-12-24T19:40:42.994Z,-6.02
2022-12-24T19:43:09.712Z,-6.05
2022-12-24T19:45:36.391Z,-6.03
2022-12-24T19:48:03.254Z,-6.03
2022-12-24T19:50:30.072Z,-6.00
2022-12-24T19:52:56.952Z,-5.95
2022-12-24T19:55:23.678Z,-5.94
2022-12-24T19:57:52.634Z,-5.92
2022-12-24T20:00:19.729Z,-5.91
2022-12-24T20:02:46.474Z,-5.88
2022-12-24T20:05:13.146Z,-5.85
2022-12-24T20:07:39.791Z,-5.83
2022-12-24T20:10:07.168Z,-5.79
2022-12-24T20:12:34.349Z,-5.77
2022-12-24T20:15:01.110Z,-5.73
2022-12-24T20:17:27.820Z,-5.73
2022-12-24T20:19:54.695Z,-5.70
2022-12-24T20:22:21.351Z,-5.67
2022-12-24T20:24:48.033Z,-5.64
2022-12-24T20:27:14.746Z,-5.64
2022-12-24T20:29:41.501Z,-5.63
2022-12-24T20:32:08.286Z,-5.62
2022-12-24T20:34:35.154Z,-5.61
2022-12-24T20:37:01.857Z,-5.62
2022-12-24T20:39:28.567Z,-5.62
2022-12-24T20:41:55.262Z,-5.61
2022-12-24T20:44:21.997Z,-5.58
2022-12-24T20:46:48.705Z,-5.56
2022-12-24T20:49:15.436Z,-5.55
2022-12-24T20:51:42.101Z,-5.53
2022-12-24T20:54:10.849Z,-5.52
2022-12-24T20:56:37.889Z,-5.50
2022-12-24T20:59:04.752Z,-5.50
2022-12-24T21:01:31.650Z,-5.49
2022-12-24T21:04:00.330Z,-5.50
2022-12-24T21:06:27.104Z,-5.50
2022-12-24T21:08:54.135Z,-5.49
2022-12-24T21:11:40.782Z,-5.47
2022-12-24T21:14:07.550Z,-5.45
2022-12-24T21:16:36.581Z,-5.43
2022-12-24T21:19:04.761Z,-5.40
2022-12-24T21:21:31.750Z,-5.35
2022-12-24T21:23:58.457Z,-5.31
2022-12-24T21:26:25.132Z,-5.30
2022-12-24T21:28:53.242Z,-5.26
2022-12-24T21:31:20.233Z,-5.21
2022-12-24T21:33:47.527Z,-5.16
2022-12-24T21:36:14.782Z,-5.16
2022-12-24T21:38:41.562Z,-5.14
2022-12-24T21:41:17.085Z,-5.13
2022-12-24T21:43:45.011Z,-5.07
2022-12-24T21:46:14.869Z,-5.01
2022-12-24T21:49:00.321Z,-4.93
2022-12-24T21:51:28.269Z,-4.84
2022-12-24T21:54:14.326Z,-4.76
2022-12-24T21:56:59.991Z,-4.70
2022-12-24T21:59:27.554Z,-4.64
2022-12-24T22:01:55.366Z,-4.61
2022-12-24T22:04:22.356Z,-4.58
2022-12-24T22:07:07.817Z,-4.54
2022-12-24T22:09:53.360Z,-4.51
2022-12-24T22:12:20.110Z,-4.50
2022-12-24T22:14:46.936Z,-4.49
2022-12-24T22:17:13.639Z,-4.50
2022-12-24T22:19:41.345Z,-4.51
2022-12-24T22:22:08.015Z,-4.47
2022-12-24T22:24:34.666Z,-4.42
2022-12-24T22:27:01.361Z,-4.36
2022-12-24T22:29:28.002Z,-4.31
2022-12-24T22:31:54.718Z,-4.25
2022-12-24T22:34:21.442Z,-4.25
2022-12-24T22:36:48.121Z,-4.22
2022-12-24T22:39:14.897Z,-4.22
2022-12-24T22:41:41.585Z,-4.20
2022-12-24T22:44:08.265Z,-4.18
2022-12-24T22:46:34.983Z,-4.15
2022-12-24T22:49:01.754Z,-4.14
2022-12-24T22:51:28.441Z,-4.12
2022-12-24T22:53:55.098Z,-4.11
2022-12-24T22:56:23.104Z,-4.10
2022-12-24T22:58:54.196Z,-4.11
2022-12-24T23:01:40.938Z,-4.12
2022-12-24T23:04:08.224Z,-4.10
2022-12-24T23:06:35.591Z,-4.08
2022-12-24T23:09:04.572Z,-4.03
2022-12-24T23:11:31.390Z,-3.99
2022-12-24T23:14:16.629Z,-3.96
2022-12-24T23:16:43.329Z,-3.96
2022-12-24T23:19:10.025Z,-3.97
2022-12-24T23:21:37.125Z,-3.95
2022-12-24T23:24:04.082Z,-3.95
2022-12-24T23:26:30.882Z,-3.95
2022-12-24T23:28:57.991Z,-3.98
2022-12-24T23:31:25.992Z,-3.98
2022-12-24T23:33:53.416Z,-3.97
2022-12-24T23:36:21.406Z,-3.95
2022-12-24T23:38:48.679Z,-3.90
2022-12-24T23:41:17.958Z,-3.90
2022-12-24T23:43:45.700Z,-3.96
2022-12-24T23:46:17.638Z,-4.01
2022-12-24T23:48:46.029Z,-4.02
2022-12-24T23:51:16.843Z,-4.04
2022-12-24T23:53:43.974Z,-4.06
2022-12-24T23:56:12.199Z,-4.10
2022-12-24T23:58:40.940Z,-4.17
